sensor_id;sensor_type;location;lat;lon;timestamp;temperature;humidity
20998;DHT22;10657;51.276;6.390;2024-01-30T00:01:55;8.40;99.90
20998;DHT22;10657;51.276;6.390;2024-01-30T00:04:22;8.40;99.90
20998;DHT22;10657;51.276;6.390;2024-01-30T00:06:50;8.50;99.90
20998;DHT22;10657;51.276;6.390;2024-01-30T00:09:17;8.40;99.90
20998;DHT22;10657;51.276;6.390;2024-01-30T00:11:44;8.50;99.90
20998;DHT22;10657;51.276;6.390;2024-01-30T00:14:11;8.50;99.90
20998;DHT22;10657;51.276;6.390;2024-01-30T00:16:37;8.50;99.90
20998;DHT22;10657;51.276;6.390;2024-01-30T00:19:04;8.40;99.90
20998;DHT22;10657;51.276;6.390;2024-01-30T00:21:31;8.50;99.90
20998;DHT22;10657;51.276;6.390;2024-01-30T00:23:58;8.40;99.90
20998;DHT22;10657;51.276;6.390;2024-01-30T00:26:24;8.40;99.90
20998;DHT22;10657;51.276;6.390;2024-01-30T00:28:51;8.50;99.90
20998;DHT22;10657;51.276;6.390;2024-01-30T00:31:18;8.50;99.90
20998;DHT22;10657;51.276;6.390;2024-01-30T00:33:44;8.50;99.90
20998;DHT22;10657;51.276;6.390;2024-01-30T00:36:11;8.50;99.90
20998;DHT22;10657;51.276;6.390;2024-01-30T00:38:38;8.50;99.90
20998;DHT22;10657;51.276;6.390;2024-01-30T00:41:04;8.50;99.90
20998;DHT22;10657;51.276;6.390;2024-01-30T00:43:31;8.50;99.90
20998;DHT22;10657;51.276;6.390;2024-01-30T00:45:58;8.50;99.90
20998;DHT22;10657;51.276;6.390;2024-01-30T00:48:25;8.40;99.90
20998;DHT22;10657;51.276;6.390;2024-01-30T00:50:52;8.50;99.90
20998;DHT22;10657;51.276;6.390;2024-01-30T00:53:19;8.50;99.90
20998;DHT22;10657;51.276;6.390;2024-01-30T00:55:46;8.50;99.90
20998;DHT22;10657;51.276;6.390;2024-01-30T00:58:13;8.50;99.90
20998;DHT22;10657;51.276;6.390;2024-01-30T01:00:40;8.50;99.90
20998;DHT22;10657;51.276;6.390;2024-01-30T01:03:06;8.60;99.90
20998;DHT22;10657;51.276;6.390;2024-01-30T01:05:33;8.50;99.90
20998;DHT22;10657;51.276;6.390;2024-01-30T01:08:00;8.50;99.90
20998;DHT22;10657;51.276;6.390;2024-01-30T01:10:27;8.50;99.90
20998;DHT22;10657;51.276;6.390;2024-01-30T01:12:54;8.50;99.90
20998;DHT22;10657;51.276;6.390;2024-01-30T01:15:21;8.40;99.90
20998;DHT22;10657;51.276;6.390;2024-01-30T01:17:48;8.40;99.90
20998;DHT22;10657;51.276;6.390;2024-01-30T01:20:15;8.50;99.90
20998;DHT22;10657;51.276;6.390;2024-01-30T01:22:42;8.30;99.90
20998;DHT22;10657;51.276;6.390;2024-01-30T01:25:09;8.30;99.90
20998;DHT22;10657;51.276;6.390;2024-01-30T01:27:36;8.30;99.90
20998;DHT22;10657;51.276;6.390;2024-01-30T01:30:10;8.40;99.90
20998;DHT22;10657;51.276;6.390;2024-01-30T01:32:38;8.40;99.90
20998;DHT22;10657;51.276;6.390;2024-01-30T01:35:05;8.30;99.90
20998;DHT22;10657;51.276;6.390;2024-01-30T01:37:32;8.30;99.90
20998;DHT22;10657;51.276;6.390;2024-01-30T01:40:00;8.30;99.90
20998;DHT22;10657;51.276;6.390;2024-01-30T01:42:26;8.30;99.90
20998;DHT22;10657;51.276;6.390;2024-01-30T01:44:53;8.20;99.90
20998;DHT22;10657;51.276;6.390;2024-01-30T01:47:20;8.20;99.90
20998;DHT22;10657;51.276;6.390;2024-01-30T01:49:47;8.20;99.90
20998;DHT22;10657;51.276;6.390;2024-01-30T01:52:14;8.20;99.90
20998;DHT22;10657;51.276;6.390;2024-01-30T01:54:41;8.20;99.90
20998;DHT22;10657;51.276;6.390;2024-01-30T01:57:08;8.30;99.90
20998;DHT22;10657;51.276;6.390;2024-01-30T01:59:35;8.20;99.90
20998;DHT22;10657;51.276;6.390;2024-01-30T02:02:02;8.30;99.90
20998;DHT22;10657;51.276;6.390;2024-01-30T02:04:30;8.20;99.90
20998;DHT22;10657;51.276;6.390;2024-01-30T02:06:56;8.20;99.90
20998;DHT22;10657;51.276;6.390;2024-01-30T02:09:23;8.20;99.90
20998;DHT22;10657;51.276;6.390;2024-01-30T02:11:50;8.10;99.90
20998;DHT22;10657;51.276;6.390;2024-01-30T02:14:17;8.10;99.90
20998;DHT22;10657;51.276;6.390;2024-01-30T02:16:44;8.10;99.90
20998;DHT22;10657;51.276;6.390;2024-01-30T02:19:11;8.20;99.90
20998;DHT22;10657;51.276;6.390;2024-01-30T02:21:38;8.10;99.90
20998;DHT22;10657;51.276;6.390;2024-01-30T02:24:05;8.20;99.90
20998;DHT22;10657;51.276;6.390;2024-01-30T02:26:32;8.10;99.90
20998;DHT22;10657;51.276;6.390;2024-01-30T02:28:59;8.20;99.90
20998;DHT22;10657;51.276;6.390;2024-01-30T02:31:26;8.20;99.90
20998;DHT22;10657;51.276;6.390;2024-01-30T02:33:53;8.10;99.90
20998;DHT22;10657;51.276;6.390;2024-01-30T02:36:20;8.00;99.90
20998;DHT22;10657;51.276;6.390;2024-01-30T02:38:46;8.00;99.90
20998;DHT22;10657;51.276;6.390;2024-01-30T02:41:13;8.00;99.90
20998;DHT22;10657;51.276;6.390;2024-01-30T02:43:40;8.10;99.90
20998;DHT22;10657;51.276;6.390;2024-01-30T02:46:07;8.10;99.90
20998;DHT22;10657;51.276;6.390;2024-01-30T02:48:34;8.10;99.90
20998;DHT22;10657;51.276;6.390;2024-01-30T02:51:00;8.10;99.90
20998;DHT22;10657;51.276;6.390;2024-01-30T02:53:27;8.10;99.90
20998;DHT22;10657;51.276;6.390;2024-01-30T02:55:54;8.10;99.90
20998;DHT22;10657;51.276;6.390;2024-01-30T02:58:20;8.10;99.90
20998;DHT22;10657;51.276;6.390;2024-01-30T03:00:47;8.20;99.90
20998;DHT22;10657;51.276;6.390;2024-01-30T03:03:14;8.10;99.90
20998;DHT22;10657;51.276;6.390;2024-01-30T03:05:41;8.10;99.90
20998;DHT22;10657;51.276;6.390;2024-01-30T03:08:07;8.10;99.90
20998;DHT22;10657;51.276;6.390;2024-01-30T03:10:34;8.10;99.90
20998;DHT22;10657;51.276;6.390;2024-01-30T03:13:01;8.10;99.90
20998;DHT22;10657;51.276;6.390;2024-01-30T03:15:27;8.10;99.90
20998;DHT22;10657;51.276;6.390;2024-01-30T03:17:54;8.10;99.90
20998;DHT22;10657;51.276;6.390;2024-01-30T03:20:21;8.10;99.90
20998;DHT22;10657;51.276;6.390;2024-01-30T03:22:48;8.10;99.90
20998;DHT22;10657;51.276;6.390;2024-01-30T03:25:14;8.00;99.90
20998;DHT22;10657;51.276;6.390;2024-01-30T03:27:41;7.80;99.90
20998;DHT22;10657;51.276;6.390;2024-01-30T03:30:08;7.80;99.90
20998;DHT22;10657;51.276;6.390;2024-01-30T03:32:35;7.90;99.90
20998;DHT22;10657;51.276;6.390;2024-01-30T03:35:01;7.90;99.90
20998;DHT22;10657;51.276;6.390;2024-01-30T03:37:28;8.00;99.90
20998;DHT22;10657;51.276;6.390;2024-01-30T03:39:55;8.00;99.90
20998;DHT22;10657;51.276;6.390;2024-01-30T03:42:22;8.00;99.90
20998;DHT22;10657;51.276;6.390;2024-01-30T03:44:49;8.00;99.90
20998;DHT22;10657;51.276;6.390;2024-01-30T03:47:18;7.90;99.90
20998;DHT22;10657;51.276;6.390;2024-01-30T03:49:45;7.90;99.90
20998;DHT22;10657;51.276;6.390;2024-01-30T03:52:12;8.00;99.90
20998;DHT22;10657;51.276;6.390;2024-01-30T03:54:39;7.90;99.90
20998;DHT22;10657;51.276;6.390;2024-01-30T03:57:06;7.90;99.90
20998;DHT22;10657;51.276;6.390;2024-01-30T03:59:32;8.00;99.90
20998;DHT22;10657;51.276;6.390;2024-01-30T04:01:59;8.00;99.90
20998;DHT22;10657;51.276;6.390;2024-01-30T04:04:27;7.90;99.90
20998;DHT22;10657;51.276;6.390;2024-01-30T04:06:54;8.00;99.90
20998;DHT22;10657;51.276;6.390;2024-01-30T04:09:20;8.00;99.90
20998;DHT22;10657;51.276;6.390;2024-01-30T04:11:47;8.00;99.90
20998;DHT22;10657;51.276;6.390;2024-01-30T04:14:14;8.00;99.90
20998;DHT22;10657;51.276;6.390;2024-01-30T04:16:40;7.90;99.90
20998;DHT22;10657;51.276;6.390;2024-01-30T04:19:07;8.00;99.90
20998;DHT22;10657;51.276;6.390;2024-01-30T04:21:34;8.00;99.90
20998;DHT22;10657;51.276;6.390;2024-01-30T04:24:00;8.00;99.90
20998;DHT22;10657;51.276;6.390;2024-01-30T04:26:27;7.90;99.90
20998;DHT22;10657;51.276;6.390;2024-01-30T04:28:54;7.90;99.90
20998;DHT22;10657;51.276;6.390;2024-01-30T04:31:20;7.80;99.90
20998;DHT22;10657;51.276;6.390;2024-01-30T04:33:47;7.80;99.90
20998;DHT22;10657;51.276;6.390;2024-01-30T04:36:14;7.70;99.90
20998;DHT22;10657;51.276;6.390;2024-01-30T04:38:41;7.80;99.90
20998;DHT22;10657;51.276;6.390;2024-01-30T04:41:08;7.80;99.90
20998;DHT22;10657;51.276;6.390;2024-01-30T04:43:34;7.90;99.90
20998;DHT22;10657;51.276;6.390;2024-01-30T04:46:01;7.90;99.90
20998;DHT22;10657;51.276;6.390;2024-01-30T04:48:28;7.90;99.90
20998;DHT22;10657;51.276;6.390;2024-01-30T04:50:55;7.90;99.90
20998;DHT22;10657;51.276;6.390;2024-01-30T04:53:22;7.80;99.90
20998;DHT22;10657;51.276;6.390;2024-01-30T04:55:49;7.80;99.90
20998;DHT22;10657;51.276;6.390;2024-01-30T04:58:16;7.80;99.90
20998;DHT22;10657;51.276;6.390;2024-01-30T05:00:43;7.80;99.90
20998;DHT22;10657;51.276;6.390;2024-01-30T05:03:09;7.70;99.90
20998;DHT22;10657;51.276;6.390;2024-01-30T05:05:36;7.60;99.90
20998;DHT22;10657;51.276;6.390;2024-01-30T05:08:03;7.60;99.90
20998;DHT22;10657;51.276;6.390;2024-01-30T05:10:30;7.70;99.90
20998;DHT22;10657;51.276;6.390;2024-01-30T05:12:56;7.60;99.90
20998;DHT22;10657;51.276;6.390;2024-01-30T05:15:23;7.70;99.90
20998;DHT22;10657;51.276;6.390;2024-01-30T05:17:50;7.80;99.90
20998;DHT22;10657;51.276;6.390;2024-01-30T05:20:17;7.70;99.90
20998;DHT22;10657;51.276;6.390;2024-01-30T05:22:44;7.60;99.90
20998;DHT22;10657;51.276;6.390;2024-01-30T05:25:12;7.60;99.90
20998;DHT22;10657;51.276;6.390;2024-01-30T05:27:39;7.60;99.90
20998;DHT22;10657;51.276;6.390;2024-01-30T05:30:07;7.70;99.90
20998;DHT22;10657;51.276;6.390;2024-01-30T05:32:34;7.70;99.90
20998;DHT22;10657;51.276;6.390;2024-01-30T05:35:01;7.80;99.90
20998;DHT22;10657;51.276;6.390;2024-01-30T05:37:28;7.80;99.90
20998;DHT22;10657;51.276;6.390;2024-01-30T05:39:55;7.70;99.90
20998;DHT22;10657;51.276;6.390;2024-01-30T05:42:22;7.70;99.90
20998;DHT22;10657;51.276;6.390;2024-01-30T05:44:48;7.70;99.90
20998;DHT22;10657;51.276;6.390;2024-01-30T05:47:15;7.70;99.90
20998;DHT22;10657;51.276;6.390;2024-01-30T05:49:42;7.70;99.90
20998;DHT22;10657;51.276;6.390;2024-01-30T05:52:08;7.70;99.90
20998;DHT22;10657;51.276;6.390;2024-01-30T05:54:36;7.70;99.90
20998;DHT22;10657;51.276;6.390;2024-01-30T05:57:03;7.80;99.90
20998;DHT22;10657;51.276;6.390;2024-01-30T05:59:29;7.80;99.90
20998;DHT22;10657;51.276;6.390;2024-01-30T06:01:56;7.80;99.90
20998;DHT22;10657;51.276;6.390;2024-01-30T06:04:23;7.90;99.90
20998;DHT22;10657;51.276;6.390;2024-01-30T06:06:50;7.80;99.90
20998;DHT22;10657;51.276;6.390;2024-01-30T06:09:17;7.80;99.90
20998;DHT22;10657;51.276;6.390;2024-01-30T06:11:45;7.70;99.90
20998;DHT22;10657;51.276;6.390;2024-01-30T06:14:11;7.80;99.90
20998;DHT22;10657;51.276;6.390;2024-01-30T06:16:38;7.70;99.90
20998;DHT22;10657;51.276;6.390;2024-01-30T06:19:05;7.70;99.90
20998;DHT22;10657;51.276;6.390;2024-01-30T06:21:32;7.80;99.90
20998;DHT22;10657;51.276;6.390;2024-01-30T06:24:03;7.90;99.90
20998;DHT22;10657;51.276;6.390;2024-01-30T06:26:29;7.90;99.90
20998;DHT22;10657;51.276;6.390;2024-01-30T06:28:56;7.80;99.90
20998;DHT22;10657;51.276;6.390;2024-01-30T06:31:23;7.80;99.90
20998;DHT22;10657;51.276;6.390;2024-01-30T06:33:50;7.80;99.90
20998;DHT22;10657;51.276;6.390;2024-01-30T06:36:17;7.80;99.90
20998;DHT22;10657;51.276;6.390;2024-01-30T06:38:44;7.90;99.90
20998;DHT22;10657;51.276;6.390;2024-01-30T06:41:12;7.90;99.90
20998;DHT22;10657;51.276;6.390;2024-01-30T06:43:38;7.90;99.90
20998;DHT22;10657;51.276;6.390;2024-01-30T06:46:05;7.80;99.90
20998;DHT22;10657;51.276;6.390;2024-01-30T06:48:32;7.90;99.90
20998;DHT22;10657;51.276;6.390;2024-01-30T06:50:59;7.90;99.90
20998;DHT22;10657;51.276;6.390;2024-01-30T06:53:26;7.80;99.90
20998;DHT22;10657;51.276;6.390;2024-01-30T06:55:53;7.90;99.90
20998;DHT22;10657;51.276;6.390;2024-01-30T06:58:19;7.90;99.90
20998;DHT22;10657;51.276;6.390;2024-01-30T07:00:49;7.90;99.90
20998;DHT22;10657;51.276;6.390;2024-01-30T07:03:15;7.90;99.90
20998;DHT22;10657;51.276;6.390;2024-01-30T07:05:42;7.90;99.90
20998;DHT22;10657;51.276;6.390;2024-01-30T07:08:09;7.80;99.90
20998;DHT22;10657;51.276;6.390;2024-01-30T07:10:36;7.90;99.90
20998;DHT22;10657;51.276;6.390;2024-01-30T07:13:07;7.90;99.90
20998;DHT22;10657;51.276;6.390;2024-01-30T07:15:36;7.90;99.90
20998;DHT22;10657;51.276;6.390;2024-01-30T07:18:07;7.90;99.90
20998;DHT22;10657;51.276;6.390;2024-01-30T07:20:37;8.00;99.90
20998;DHT22;10657;51.276;6.390;2024-01-30T07:23:08;7.90;99.90
20998;DHT22;10657;51.276;6.390;2024-01-30T07:25:37;7.90;99.90
20998;DHT22;10657;51.276;6.390;2024-01-30T07:28:04;8.00;99.90
20998;DHT22;10657;51.276;6.390;2024-01-30T07:30:35;8.00;99.90
20998;DHT22;10657;51.276;6.390;2024-01-30T07:33:02;8.00;99.90
20998;DHT22;10657;51.276;6.390;2024-01-30T07:35:35;8.00;99.90
20998;DHT22;10657;51.276;6.390;2024-01-30T07:38:01;8.10;99.90
20998;DHT22;10657;51.276;6.390;2024-01-30T07:40:31;8.00;99.90
20998;DHT22;10657;51.276;6.390;2024-01-30T07:43:02;8.10;99.90
20998;DHT22;10657;51.276;6.390;2024-01-30T07:45:30;8.00;99.90
20998;DHT22;10657;51.276;6.390;2024-01-30T07:47:59;8.10;99.90
20998;DHT22;10657;51.276;6.390;2024-01-30T07:50:29;8.10;99.90
20998;DHT22;10657;51.276;6.390;2024-01-30T07:52:56;8.10;99.90
20998;DHT22;10657;51.276;6.390;2024-01-30T07:55:26;8.10;99.90
20998;DHT22;10657;51.276;6.390;2024-01-30T08:01:26;8.10;99.90
20998;DHT22;10657;51.276;6.390;2024-01-30T08:03:54;8.10;99.90
20998;DHT22;10657;51.276;6.390;2024-01-30T08:06:21;8.20;99.90
20998;DHT22;10657;51.276;6.390;2024-01-30T08:08:50;8.20;99.90
20998;DHT22;10657;51.276;6.390;2024-01-30T08:11:22;8.20;99.90
20998;DHT22;10657;51.276;6.390;2024-01-30T08:13:53;8.20;99.90
20998;DHT22;10657;51.276;6.390;2024-01-30T08:16:20;8.20;99.90
20998;DHT22;10657;51.276;6.390;2024-01-30T08:18:47;8.30;99.90
20998;DHT22;10657;51.276;6.390;2024-01-30T08:21:13;8.20;99.90
20998;DHT22;10657;51.276;6.390;2024-01-30T08:23:40;8.20;99.90
20998;DHT22;10657;51.276;6.390;2024-01-30T08:26:07;8.20;99.90
20998;DHT22;10657;51.276;6.390;2024-01-30T08:28:34;8.20;99.90
20998;DHT22;10657;51.276;6.390;2024-01-30T08:31:01;8.20;99.90
20998;DHT22;10657;51.276;6.390;2024-01-30T08:33:28;8.20;99.90
20998;DHT22;10657;51.276;6.390;2024-01-30T08:35:54;8.20;99.90
20998;DHT22;10657;51.276;6.390;2024-01-30T08:38:21;8.20;99.90
20998;DHT22;10657;51.276;6.390;2024-01-30T08:40:48;8.30;99.90
20998;DHT22;10657;51.276;6.390;2024-01-30T08:43:14;8.30;99.90
20998;DHT22;10657;51.276;6.390;2024-01-30T08:45:45;8.30;99.90
20998;DHT22;10657;51.276;6.390;2024-01-30T08:48:11;8.30;99.90
20998;DHT22;10657;51.276;6.390;2024-01-30T08:50:38;8.30;99.90
20998;DHT22;10657;51.276;6.390;2024-01-30T08:53:05;8.30;99.90
20998;DHT22;10657;51.276;6.390;2024-01-30T08:55:32;8.30;99.90
20998;DHT22;10657;51.276;6.390;2024-01-30T08:57:58;8.20;99.90
20998;DHT22;10657;51.276;6.390;2024-01-30T09:00:26;8.30;99.90
20998;DHT22;10657;51.276;6.390;2024-01-30T09:02:52;8.20;99.90
20998;DHT22;10657;51.276;6.390;2024-01-30T09:05:19;8.20;99.90
20998;DHT22;10657;51.276;6.390;2024-01-30T09:07:46;8.30;99.90
20998;DHT22;10657;51.276;6.390;2024-01-30T09:10:16;8.40;99.90
20998;DHT22;10657;51.276;6.390;2024-01-30T09:12:47;8.40;99.90
20998;DHT22;10657;51.276;6.390;2024-01-30T09:15:14;8.50;99.90
20998;DHT22;10657;51.276;6.390;2024-01-30T09:17:40;8.50;99.90
20998;DHT22;10657;51.276;6.390;2024-01-30T09:20:07;8.50;99.90
20998;DHT22;10657;51.276;6.390;2024-01-30T09:22:35;8.50;99.90
20998;DHT22;10657;51.276;6.390;2024-01-30T09:25:02;8.60;99.90
20998;DHT22;10657;51.276;6.390;2024-01-30T09:27:29;8.70;99.90
20998;DHT22;10657;51.276;6.390;2024-01-30T09:29:56;8.70;99.90
20998;DHT22;10657;51.276;6.390;2024-01-30T09:32:25;8.70;99.90
20998;DHT22;10657;51.276;6.390;2024-01-30T09:34:53;8.80;99.90
20998;DHT22;10657;51.276;6.390;2024-01-30T09:37:19;8.80;99.90
20998;DHT22;10657;51.276;6.390;2024-01-30T09:39:49;8.80;99.90
20998;DHT22;10657;51.276;6.390;2024-01-30T09:42:35;8.90;99.90
20998;DHT22;10657;51.276;6.390;2024-01-30T09:45:05;9.00;99.90
20998;DHT22;10657;51.276;6.390;2024-01-30T09:47:34;9.10;99.90
20998;DHT22;10657;51.276;6.390;2024-01-30T09:50:02;9.10;99.90
20998;DHT22;10657;51.276;6.390;2024-01-30T09:52:30;9.10;99.90
20998;DHT22;10657;51.276;6.390;2024-01-30T09:54:59;9.20;99.90
20998;DHT22;10657;51.276;6.390;2024-01-30T09:57:26;9.20;99.90
20998;DHT22;10657;51.276;6.390;2024-01-30T09:59:55;9.30;99.90
20998;DHT22;10657;51.276;6.390;2024-01-30T10:02:22;9.30;99.90
20998;DHT22;10657;51.276;6.390;2024-01-30T10:04:51;9.30;99.90
20998;DHT22;10657;51.276;6.390;2024-01-30T10:07:19;9.30;99.90
20998;DHT22;10657;51.276;6.390;2024-01-30T10:09:48;9.30;99.90
20998;DHT22;10657;51.276;6.390;2024-01-30T10:12:15;9.40;99.90
20998;DHT22;10657;51.276;6.390;2024-01-30T10:14:43;9.50;99.90
20998;DHT22;10657;51.276;6.390;2024-01-30T10:17:11;9.50;99.90
20998;DHT22;10657;51.276;6.390;2024-01-30T10:19:50;9.60;99.90
20998;DHT22;10657;51.276;6.390;2024-01-30T10:22:18;9.60;99.90
20998;DHT22;10657;51.276;6.390;2024-01-30T10:24:45;9.60;99.90
20998;DHT22;10657;51.276;6.390;2024-01-30T10:27:12;9.70;99.90
20998;DHT22;10657;51.276;6.390;2024-01-30T10:29:38;9.70;99.90
20998;DHT22;10657;51.276;6.390;2024-01-30T10:32:08;9.80;99.90
20998;DHT22;10657;51.276;6.390;2024-01-30T10:34:35;9.80;99.90
20998;DHT22;10657;51.276;6.390;2024-01-30T10:37:08;9.90;99.90
20998;DHT22;10657;51.276;6.390;2024-01-30T10:39:39;9.90;99.90
20998;DHT22;10657;51.276;6.390;2024-01-30T10:42:14;9.90;99.90
20998;DHT22;10657;51.276;6.390;2024-01-30T10:44:49;10.00;99.90
20998;DHT22;10657;51.276;6.390;2024-01-30T10:47:28;10.00;99.90
20998;DHT22;10657;51.276;6.390;2024-01-30T10:49:56;10.10;99.90
20998;DHT22;10657;51.276;6.390;2024-01-30T10:52:24;10.10;99.90
20998;DHT22;10657;51.276;6.390;2024-01-30T10:54:54;10.10;99.90
20998;DHT22;10657;51.276;6.390;2024-01-30T10:57:23;10.10;99.90
20998;DHT22;10657;51.276;6.390;2024-01-30T10:59:57;10.20;99.90
20998;DHT22;10657;51.276;6.390;2024-01-30T11:02:24;10.20;99.90
20998;DHT22;10657;51.276;6.390;2024-01-30T11:04:58;10.20;99.90
20998;DHT22;10657;51.276;6.390;2024-01-30T11:07:28;10.20;99.90
20998;DHT22;10657;51.276;6.390;2024-01-30T11:12:28;10.30;99.90
20998;DHT22;10657;51.276;6.390;2024-01-30T11:20:21;10.50;99.90
20998;DHT22;10657;51.276;6.390;2024-01-30T11:22:51;10.50;99.90
20998;DHT22;10657;51.276;6.390;2024-01-30T11:25:20;10.60;99.90
20998;DHT22;10657;51.276;6.390;2024-01-30T11:27:50;10.70;99.90
20998;DHT22;10657;51.276;6.390;2024-01-30T11:30:30;10.70;99.90
20998;DHT22;10657;51.276;6.390;2024-01-30T11:33:04;10.80;99.90
20998;DHT22;10657;51.276;6.390;2024-01-30T11:35:33;10.80;99.90
20998;DHT22;10657;51.276;6.390;2024-01-30T11:38:01;10.90;99.90
20998;DHT22;10657;51.276;6.390;2024-01-30T11:40:29;10.90;99.90
20998;DHT22;10657;51.276;6.390;2024-01-30T11:43:01;10.90;99.90
20998;DHT22;10657;51.276;6.390;2024-01-30T11:45:28;10.90;99.90
20998;DHT22;10657;51.276;6.390;2024-01-30T11:47:55;11.00;99.90
20998;DHT22;10657;51.276;6.390;2024-01-30T11:50:24;10.90;99.90
20998;DHT22;10657;51.276;6.390;2024-01-30T11:52:51;11.00;99.90
20998;DHT22;10657;51.276;6.390;2024-01-30T11:55:18;11.00;99.90
20998;DHT22;10657;51.276;6.390;2024-01-30T11:57:48;11.10;99.90
20998;DHT22;10657;51.276;6.390;2024-01-30T12:00:18;11.10;99.90
20998;DHT22;10657;51.276;6.390;2024-01-30T12:02:52;11.10;99.90
20998;DHT22;10657;51.276;6.390;2024-01-30T12:05:26;11.20;99.90
20998;DHT22;10657;51.276;6.390;2024-01-30T12:07:53;11.10;99.90
20998;DHT22;10657;51.276;6.390;2024-01-30T12:10:21;11.20;99.90
20998;DHT22;10657;51.276;6.390;2024-01-30T12:12:49;11.20;99.90
20998;DHT22;10657;51.276;6.390;2024-01-30T12:15:19;11.20;99.90
20998;DHT22;10657;51.276;6.390;2024-01-30T12:17:48;11.30;99.90
20998;DHT22;10657;51.276;6.390;2024-01-30T12:20:18;11.30;99.90
20998;DHT22;10657;51.276;6.390;2024-01-30T12:22:47;11.30;99.90
20998;DHT22;10657;51.276;6.390;2024-01-30T12:25:20;11.30;99.90
20998;DHT22;10657;51.276;6.390;2024-01-30T12:27:52;11.20;99.90
20998;DHT22;10657;51.276;6.390;2024-01-30T12:30:20;11.30;99.90
20998;DHT22;10657;51.276;6.390;2024-01-30T12:32:50;11.40;99.90
20998;DHT22;10657;51.276;6.390;2024-01-30T12:35:19;11.30;99.90
20998;DHT22;10657;51.276;6.390;2024-01-30T12:37:49;11.30;99.90
20998;DHT22;10657;51.276;6.390;2024-01-30T12:40:17;11.30;99.90
20998;DHT22;10657;51.276;6.390;2024-01-30T12:42:48;11.30;99.90
20998;DHT22;10657;51.276;6.390;2024-01-30T12:45:25;11.40;99.90
20998;DHT22;10657;51.276;6.390;2024-01-30T12:47:51;11.30;99.90
20998;DHT22;10657;51.276;6.390;2024-01-30T12:50:19;11.40;99.90
20998;DHT22;10657;51.276;6.390;2024-01-30T12:52:46;11.40;99.90
20998;DHT22;10657;51.276;6.390;2024-01-30T12:55:16;11.30;99.90
20998;DHT22;10657;51.276;6.390;2024-01-30T12:57:43;11.40;99.90
20998;DHT22;10657;51.276;6.390;2024-01-30T13:00:10;11.40;99.90
20998;DHT22;10657;51.276;6.390;2024-01-30T13:02:37;11.40;99.90
20998;DHT22;10657;51.276;6.390;2024-01-30T13:05:04;11.40;99.90
20998;DHT22;10657;51.276;6.390;2024-01-30T13:07:31;11.40;99.90
20998;DHT22;10657;51.276;6.390;2024-01-30T13:09:58;11.40;99.90
20998;DHT22;10657;51.276;6.390;2024-01-30T13:12:30;11.50;99.90
20998;DHT22;10657;51.276;6.390;2024-01-30T13:14:59;11.50;99.90
20998;DHT22;10657;51.276;6.390;2024-01-30T13:17:27;11.50;99.90
20998;DHT22;10657;51.276;6.390;2024-01-30T13:19:54;11.50;99.90
20998;DHT22;10657;51.276;6.390;2024-01-30T13:22:28;11.50;99.90
20998;DHT22;10657;51.276;6.390;2024-01-30T13:24:55;11.50;99.90
20998;DHT22;10657;51.276;6.390;2024-01-30T13:27:21;11.60;99.90
20998;DHT22;10657;51.276;6.390;2024-01-30T13:29:48;11.60;99.90
20998;DHT22;10657;51.276;6.390;2024-01-30T13:32:15;11.60;99.90
20998;DHT22;10657;51.276;6.390;2024-01-30T13:34:42;11.60;99.90
20998;DHT22;10657;51.276;6.390;2024-01-30T13:37:09;11.60;99.90
20998;DHT22;10657;51.276;6.390;2024-01-30T13:39:37;11.60;99.90
20998;DHT22;10657;51.276;6.390;2024-01-30T13:42:08;11.60;99.90
20998;DHT22;10657;51.276;6.390;2024-01-30T13:44:38;11.60;99.90
20998;DHT22;10657;51.276;6.390;2024-01-30T13:47:05;11.60;99.90
20998;DHT22;10657;51.276;6.390;2024-01-30T13:49:35;11.60;99.90
20998;DHT22;10657;51.276;6.390;2024-01-30T13:52:03;11.60;99.90
20998;DHT22;10657;51.276;6.390;2024-01-30T13:54:30;11.60;99.90
20998;DHT22;10657;51.276;6.390;2024-01-30T13:56:57;11.60;99.90
20998;DHT22;10657;51.276;6.390;2024-01-30T13:59:24;11.60;99.90
20998;DHT22;10657;51.276;6.390;2024-01-30T14:01:52;11.60;99.90
20998;DHT22;10657;51.276;6.390;2024-01-30T14:04:20;11.60;99.90
20998;DHT22;10657;51.276;6.390;2024-01-30T14:06:47;11.70;99.90
20998;DHT22;10657;51.276;6.390;2024-01-30T14:09:26;11.60;99.90
20998;DHT22;10657;51.276;6.390;2024-01-30T14:11:54;11.60;99.90
20998;DHT22;10657;51.276;6.390;2024-01-30T14:14:21;11.60;99.90
20998;DHT22;10657;51.276;6.390;2024-01-30T14:16:48;11.50;99.90
20998;DHT22;10657;51.276;6.390;2024-01-30T14:19:14;11.50;99.90
20998;DHT22;10657;51.276;6.390;2024-01-30T14:21:44;11.50;99.90
20998;DHT22;10657;51.276;6.390;2024-01-30T14:24:11;11.50;99.90
20998;DHT22;10657;51.276;6.390;2024-01-30T14:26:37;11.40;99.90
20998;DHT22;10657;51.276;6.390;2024-01-30T14:29:04;11.40;99.90
20998;DHT22;10657;51.276;6.390;2024-01-30T14:31:31;11.40;99.90
20998;DHT22;10657;51.276;6.390;2024-01-30T14:33:58;11.40;99.90
20998;DHT22;10657;51.276;6.390;2024-01-30T14:36:27;11.50;99.90
20998;DHT22;10657;51.276;6.390;2024-01-30T14:38:55;11.50;99.90
20998;DHT22;10657;51.276;6.390;2024-01-30T14:41:24;11.40;99.90
20998;DHT22;10657;51.276;6.390;2024-01-30T14:43:51;11.50;99.90
20998;DHT22;10657;51.276;6.390;2024-01-30T14:46:20;11.50;99.90
20998;DHT22;10657;51.276;6.390;2024-01-30T14:48:48;11.40;99.90
20998;DHT22;10657;51.276;6.390;2024-01-30T14:51:18;11.40;99.90
20998;DHT22;10657;51.276;6.390;2024-01-30T14:53:48;11.40;99.90
20998;DHT22;10657;51.276;6.390;2024-01-30T14:56:15;11.40;99.90
20998;DHT22;10657;51.276;6.390;2024-01-30T14:58:44;11.30;99.90
20998;DHT22;10657;51.276;6.390;2024-01-30T15:01:11;11.30;99.90
20998;DHT22;10657;51.276;6.390;2024-01-30T15:03:38;11.30;99.90
20998;DHT22;10657;51.276;6.390;2024-01-30T15:06:06;11.20;99.90
20998;DHT22;10657;51.276;6.390;2024-01-30T15:08:33;11.20;99.90
20998;DHT22;10657;51.276;6.390;2024-01-30T15:11:00;11.20;99.90
20998;DHT22;10657;51.276;6.390;2024-01-30T15:13:32;11.10;99.90
20998;DHT22;10657;51.276;6.390;2024-01-30T15:15:59;11.00;99.90
20998;DHT22;10657;51.276;6.390;2024-01-30T15:18:31;11.00;99.90
20998;DHT22;10657;51.276;6.390;2024-01-30T15:21:05;10.90;99.90
20998;DHT22;10657;51.276;6.390;2024-01-30T15:23:32;10.80;99.90
20998;DHT22;10657;51.276;6.390;2024-01-30T15:25:59;10.80;99.90
20998;DHT22;10657;51.276;6.390;2024-01-30T15:28:38;10.80;99.90
20998;DHT22;10657;51.276;6.390;2024-01-30T15:31:16;10.80;99.90
20998;DHT22;10657;51.276;6.390;2024-01-30T15:33:42;10.80;99.90
20998;DHT22;10657;51.276;6.390;2024-01-30T15:36:12;10.70;99.90
20998;DHT22;10657;51.276;6.390;2024-01-30T15:38:40;10.70;99.90
20998;DHT22;10657;51.276;6.390;2024-01-30T15:41:07;10.70;99.90
20998;DHT22;10657;51.276;6.390;2024-01-30T15:43:34;10.60;99.90
20998;DHT22;10657;51.276;6.390;2024-01-30T15:46:01;10.60;99.90
20998;DHT22;10657;51.276;6.390;2024-01-30T15:48:28;10.60;99.90
20998;DHT22;10657;51.276;6.390;2024-01-30T15:50:55;10.50;99.90
20998;DHT22;10657;51.276;6.390;2024-01-30T15:53:22;10.50;99.90
20998;DHT22;10657;51.276;6.390;2024-01-30T15:55:49;10.50;99.90